Time;durP1;ratioP1;P1;durP2;ratioP2;P2;SDS_P1;SDS_P2;PMS_P1;PMS_P2;Temp;Humidity;BMP_temperature;BMP_pressure;BME280_temperature;BME280_humidity;BME280_pressure;Samples;Min_cycle;Max_cycle;Signal;HPM_P1;HPM_P2
2021/07/20 00:00:22;;;;;;;13.10;7.55;;;;;;;15.73;70.93;101813.38;5021789;28;20045;-72
2021/07/20 00:02:55;;;;;;;14.90;8.23;;;;;;;15.74;70.51;101808.97;5022666;28;20044;-73
2021/07/20 00:05:23;;;;;;;13.25;7.78;;;;;;;15.72;70.50;101809.09;5015875;28;20117;-72
2021/07/20 00:07:53;;;;;;;12.63;6.88;;;;;;;15.70;70.44;101818.09;5025218;28;20083;-73
2021/07/20 00:10:26;;;;;;;17.10;7.88;;;;;;;15.70;70.30;101816.28;5013117;28;20411;-72
2021/07/20 00:12:53;;;;;;;20.15;7.70;;;;;;;15.70;70.07;101812.88;5023994;28;20105;-72
2021/07/20 00:15:19;;;;;;;15.07;7.97;;;;;;;15.66;70.15;101814.19;5020817;28;20025;-72
2021/07/20 00:17:46;;;;;;;12.95;7.40;;;;;;;15.60;70.37;101807.00;5030951;28;20033;-73
2021/07/20 00:20:15;;;;;;;14.63;7.53;;;;;;;15.54;70.88;101811.91;5028756;28;20124;-73
2021/07/20 00:22:41;;;;;;;17.35;7.55;;;;;;;15.49;70.78;101811.56;5020881;28;20041;-73
2021/07/20 00:25:08;;;;;;;15.50;8.63;;;;;;;15.46;70.92;101808.47;5026115;28;20049;-72
2021/07/20 00:27:34;;;;;;;16.17;8.27;;;;;;;15.45;70.87;101809.47;5033038;28;20041;-72
2021/07/20 00:30:00;;;;;;;14.68;7.88;;;;;;;15.45;70.83;101805.03;5027768;28;20124;-73
2021/07/20 00:32:26;;;;;;;15.10;8.18;;;;;;;15.44;70.93;101807.81;5014017;28;20719;-72
2021/07/20 00:34:51;;;;;;;19.25;8.82;;;;;;;15.42;70.94;101815.81;5023214;28;20372;-73
2021/07/20 00:37:17;;;;;;;14.45;7.15;;;;;;;15.40;70.98;101816.97;5042168;28;20044;-73
2021/07/20 00:39:42;;;;;;;13.27;7.50;;;;;;;15.37;71.38;101816.31;5022719;28;20096;-72
2021/07/20 00:42:10;;;;;;;15.45;7.88;;;;;;;15.36;71.11;101813.84;5029979;28;20557;-73
2021/07/20 00:44:36;;;;;;;16.35;7.88;;;;;;;15.34;71.11;101814.00;5025874;28;20034;-73
2021/07/20 00:47:02;;;;;;;18.85;7.68;;;;;;;15.32;70.89;101812.56;5024607;28;20030;-72
2021/07/20 00:49:28;;;;;;;16.00;8.85;;;;;;;15.31;71.20;101810.91;5027686;28;20025;-72
2021/07/20 00:51:53;;;;;;;16.77;8.32;;;;;;;15.29;70.99;101821.50;5025283;28;20056;-72
2021/07/20 00:54:19;;;;;;;14.18;8.02;;;;;;;15.28;70.90;101809.44;5025411;28;20025;-72
2021/07/20 00:56:45;;;;;;;18.33;8.32;;;;;;;15.25;70.92;101794.09;5023502;28;20083;-72
2021/07/20 00:59:13;;;;;;;18.13;7.88;;;;;;;15.21;71.07;101805.84;5023053;28;20088;-72
2021/07/20 01:01:41;;;;;;;19.70;9.30;;;;;;;15.16;71.24;101805.50;5019838;28;20044;-72
2021/07/20 01:04:06;;;;;;;13.70;7.80;;;;;;;15.13;71.46;101800.63;5015254;28;20034;-72
2021/07/20 01:06:32;;;;;;;20.83;8.48;;;;;;;15.11;71.41;101807.81;5025540;28;20034;-72
2021/07/20 01:09:03;;;;;;;14.15;7.45;;;;;;;15.08;71.59;101797.66;5022509;28;20029;-72
2021/07/20 01:11:34;;;;;;;14.52;7.63;;;;;;;15.04;71.58;101798.97;5032999;28;20033;-72
2021/07/20 01:14:03;;;;;;;16.23;7.40;;;;;;;15.01;71.51;101805.31;5016069;28;20084;-72
2021/07/20 01:16:32;;;;;;;17.58;8.50;;;;;;;14.92;71.96;101804.50;5026340;28;20041;-72
2021/07/20 01:18:58;;;;;;;21.42;8.00;;;;;;;14.84;72.15;101812.28;5033052;28;20060;-72
2021/07/20 01:21:26;;;;;;;20.00;8.75;;;;;;;14.82;72.23;101798.59;5025574;28;20040;-72
2021/07/20 01:23:52;;;;;;;17.02;8.98;;;;;;;14.81;72.22;101806.59;5015072;28;20096;-72
2021/07/20 01:26:23;;;;;;;15.32;7.63;;;;;;;14.74;72.57;101803.78;5019187;28;20037;-72
2021/07/20 01:28:51;;;;;;;15.93;8.25;;;;;;;14.71;72.84;101802.34;5025582;28;20030;-72
2021/07/20 01:31:20;;;;;;;16.77;8.35;;;;;;;14.68;72.87;101801.81;5024310;28;20033;-72
2021/07/20 01:33:50;;;;;;;15.82;8.52;;;;;;;14.66;72.81;101807.19;5011451;28;20116;-72
2021/07/20 01:36:21;;;;;;;17.65;7.75;;;;;;;14.66;72.54;101807.19;5025729;28;20099;-72
2021/07/20 01:38:51;;;;;;;17.35;9.10;;;;;;;14.65;72.55;101812.56;5014472;28;20034;-72
2021/07/20 01:41:18;;;;;;;18.13;8.93;;;;;;;14.64;72.40;101811.75;5022912;28;20673;-72
2021/07/20 01:43:49;;;;;;;16.00;7.90;;;;;;;14.63;72.44;101806.69;5018232;28;20025;-72
2021/07/20 01:46:17;;;;;;;19.95;7.35;;;;;;;14.62;72.42;101812.88;5015550;28;20041;-72
2021/07/20 01:48:45;;;;;;;15.90;8.48;;;;;;;14.58;72.63;101818.44;5021305;28;20091;-72
2021/07/20 01:51:14;;;;;;;16.08;8.48;;;;;;;14.47;73.20;101813.47;5017571;28;20049;-72
2021/07/20 01:53:43;;;;;;;17.45;9.13;;;;;;;14.44;73.29;101811.16;5031978;28;20529;-72
2021/07/20 01:56:10;;;;;;;13.48;7.82;;;;;;;14.44;73.23;101818.19;5026951;28;20115;-72
2021/07/20 01:58:42;;;;;;;18.65;7.88;;;;;;;14.45;73.02;101817.19;5028587;28;20434;-72
2021/07/20 02:01:34;;;;;;;15.38;8.38;;;;;;;14.44;72.74;101821.59;5013594;28;20057;-72
2021/07/20 02:04:25;;;;;;;17.20;9.18;;;;;;;14.43;72.75;101825.19;5031328;28;20033;-72
2021/07/20 02:09:40;;;;;;;17.77;8.52;;;;;;;14.39;72.54;101813.41;5039475;28;20034;-72
2021/07/20 02:12:14;;;;;;;16.00;8.52;;;;;;;14.37;72.73;101815.38;5019359;28;20049;-72
2021/07/20 02:15:02;;;;;;;16.15;8.55;;;;;;;14.34;72.42;101815.69;5030307;28;20138;-73
2021/07/20 02:17:43;;;;;;;17.58;9.20;;;;;;;14.30;72.68;101817.78;5032018;28;20033;-72
2021/07/20 02:20:15;;;;;;;16.45;8.75;;;;;;;14.26;72.96;101813.88;5023912;28;20026;-72
2021/07/20 02:22:58;;;;;;;15.73;8.43;;;;;;;14.21;73.12;101808.28;5029768;28;20037;-73
2021/07/20 02:25:27;;;;;;;17.08;8.93;;;;;;;14.08;73.83;101807.88;5032633;28;20111;-73
2021/07/20 02:27:56;;;;;;;14.15;7.88;;;;;;;13.98;74.72;101810.63;5022661;28;20470;-73
2021/07/20 02:30:31;;;;;;;18.80;9.45;;;;;;;13.96;74.58;101808.16;5017544;28;20549;-73
2021/07/20 02:33:00;;;;;;;17.02;8.88;;;;;;;13.97;74.54;101803.75;5029146;28;20049;-73
2021/07/20 02:35:27;;;;;;;17.85;8.20;;;;;;;13.98;74.17;101811.41;5029453;28;20057;-73
2021/07/20 02:37:56;;;;;;;16.15;8.02;;;;;;;13.99;74.04;101817.44;5029238;28;20041;-73
2021/07/20 02:40:26;;;;;;;21.13;9.90;;;;;;;13.98;73.82;101808.00;5037689;28;20037;-73
2021/07/20 02:42:56;;;;;;;19.67;10.48;;;;;;;13.94;74.13;101810.09;5018913;28;20232;-74
2021/07/20 02:45:22;;;;;;;19.52;8.70;;;;;;;13.92;73.97;101811.19;5030027;28;20052;-73
2021/07/20 02:47:49;;;;;;;15.95;8.70;;;;;;;13.88;74.13;101808.13;5035194;28;20111;-74
2021/07/20 02:50:21;;;;;;;17.60;9.23;;;;;;;13.86;74.33;101802.19;5033224;28;20041;-73
2021/07/20 02:52:50;;;;;;;21.65;11.32;;;;;;;13.86;74.05;101801.41;5025934;28;20671;-74
2021/07/20 02:55:24;;;;;;;17.48;9.40;;;;;;;13.85;73.66;101795.38;5019887;28;20037;-73
2021/07/20 02:57:52;;;;;;;19.13;9.02;;;;;;;13.81;73.77;101794.84;5021737;28;20037;-74
2021/07/20 03:00:20;;;;;;;18.33;9.05;;;;;;;13.80;73.96;101797.63;5016220;28;20042;-74
2021/07/20 03:02:54;;;;;;;17.38;9.60;;;;;;;13.76;74.03;101799.69;5021082;28;20041;-74
2021/07/20 03:05:20;;;;;;;17.27;8.93;;;;;;;13.73;74.18;101800.03;5033194;28;20080;-74
2021/07/20 03:07:53;;;;;;;25.42;10.18;;;;;;;13.65;74.51;101802.56;5031297;28;20376;-74
2021/07/20 03:10:22;;;;;;;18.98;8.52;;;;;;;13.53;75.17;101809.00;5023277;28;20512;-74
2021/07/20 03:12:49;;;;;;;16.70;8.27;;;;;;;13.50;75.36;101804.06;5027727;28;20403;-74
2021/07/20 03:15:16;;;;;;;19.10;8.88;;;;;;;13.49;75.49;101807.66;5032140;28;20037;-75
2021/07/20 03:17:53;;;;;;;17.50;8.82;;;;;;;13.49;75.39;101805.06;5023034;28;20029;-74
2021/07/20 03:20:20;;;;;;;17.13;8.50;;;;;;;13.51;75.25;101814.34;5020161;28;20037;-75
2021/07/20 03:22:48;;;;;;;22.30;9.45;;;;;;;13.51;75.23;101809.13;5021865;28;20021;-75
2021/07/20 03:25:17;;;;;;;27.95;9.63;;;;;;;13.51;74.90;101808.31;5017213;28;20385;-75
2021/07/20 03:27:45;;;;;;;18.85;9.70;;;;;;;13.50;74.70;101806.69;5020185;28;20509;-75
2021/07/20 03:30:13;;;;;;;17.35;8.70;;;;;;;13.48;74.48;101806.81;5026087;28;20116;-75
2021/07/20 03:32:45;;;;;;;21.70;9.70;;;;;;;13.47;74.68;101804.34;5026419;28;20034;-74
2021/07/20 03:35:16;;;;;;;;;;;;;;;13.46;74.72;101805.34;5026820;28;20040;-73
2021/07/20 03:37:44;;;;;;;19.15;9.25;;;;;;;13.44;74.59;101811.50;5017776;28;20371;-74
2021/07/20 03:40:12;;;;;;;22.08;10.23;;;;;;;13.40;74.75;101806.75;5022501;28;20045;-73
2021/07/20 03:42:39;;;;;;;23.08;11.73;;;;;;;13.30;75.54;101813.78;5014346;28;20334;-73
2021/07/20 03:45:08;;;;;;;20.85;9.77;;;;;;;13.20;76.42;101812.09;5019933;28;20041;-73
2021/07/20 03:47:41;;;;;;;21.55;10.63;;;;;;;13.13;76.83;101811.06;5030138;28;20132;-74
2021/07/20 03:50:18;;;;;;;22.75;10.20;;;;;;;13.04;77.25;101809.34;5029166;28;20057;-73
2021/07/20 03:52:45;;;;;;;20.77;9.65;;;;;;;13.00;77.42;101811.41;5026167;28;20556;-73
2021/07/20 03:55:12;;;;;;;19.45;10.25;;;;;;;13.02;77.24;101804.28;5030040;28;20029;-73
2021/07/20 03:57:37;;;;;;;23.20;10.18;;;;;;;13.08;76.83;101809.88;5019796;28;20486;-73
2021/07/20 04:00:07;;;;;;;24.38;10.13;;;;;;;13.10;76.80;101806.13;5023220;28;20040;-73
2021/07/20 04:02:57;;;;;;;21.60;9.77;;;;;;;13.13;76.71;101813.66;5028095;28;20032;-73
2021/07/20 04:05:44;;;;;;;24.10;11.68;;;;;;;13.12;76.63;101806.81;5029356;28;20054;-73
2021/07/20 04:08:12;;;;;;;26.63;11.68;;;;;;;13.12;76.91;101811.19;5021722;28;20132;-73
2021/07/20 04:10:46;;;;;;;24.35;10.50;;;;;;;13.09;77.31;101816.69;5021082;28;20060;-73
2021/07/20 04:13:20;;;;;;;22.45;10.63;;;;;;;13.09;77.57;101809.72;5019556;28;20033;-73
2021/07/20 04:16:07;;;;;;;22.15;11.02;;;;;;;13.12;77.35;101812.00;5031446;28;20046;-73
2021/07/20 04:18:37;;;;;;;23.17;11.52;;;;;;;13.11;77.41;101802.56;5036363;28;20080;-73
2021/07/20 04:21:05;;;;;;;27.48;11.02;;;;;;;13.11;77.61;101802.56;5040921;28;20045;-73
2021/07/20 04:23:32;;;;;;;21.00;10.57;;;;;;;13.13;77.55;101803.25;5038039;28;20025;-73
2021/07/20 04:26:03;;;;;;;23.33;11.68;;;;;;;13.17;77.36;101796.78;5014861;28;20093;-73
2021/07/20 04:28:34;;;;;;;22.88;10.90;;;;;;;13.19;77.29;101807.03;5032800;28;20032;-73
2021/07/20 04:31:02;;;;;;;28.33;11.13;;;;;;;13.21;77.25;101799.91;5032107;28;20088;-72
2021/07/20 04:33:32;;;;;;;28.50;12.25;;;;;;;13.17;77.74;101809.78;5025191;28;20125;-73
2021/07/20 04:36:16;;;;;;;23.70;11.38;;;;;;;13.17;77.87;101814.19;5018337;28;20088;-73
2021/07/20 04:38:43;;;;;;;27.45;12.30;;;;;;;13.19;77.73;101810.47;5042283;28;20040;-73
2021/07/20 04:41:10;;;;;;;28.85;12.73;;;;;;;13.24;77.38;101812.59;5027177;28;20025;-74
2021/07/20 04:43:36;;;;;;;28.27;13.05;;;;;;;13.21;77.91;101807.72;5012580;28;20025;-73
2021/07/20 04:46:02;;;;;;;28.00;14.48;;;;;;;13.20;78.10;101811.25;5022293;28;20034;-74
2021/07/20 04:48:33;;;;;;;29.65;13.02;;;;;;;13.21;78.33;101815.53;5010909;28;20387;-73
2021/07/20 04:51:06;;;;;;;26.95;12.50;;;;;;;13.21;78.34;101811.13;5037068;28;20420;-73
2021/07/20 04:53:40;;;;;;;27.67;13.00;;;;;;;13.26;78.23;101813.28;5032162;28;20030;-73
2021/07/20 04:56:07;;;;;;;26.63;11.40;;;;;;;13.26;78.42;101813.28;5033141;28;20053;-73
2021/07/20 04:58:35;;;;;;;30.58;13.18;;;;;;;13.29;78.47;101819.97;5028226;28;20038;-74
2021/07/20 05:01:02;;;;;;;29.17;12.95;;;;;;;13.27;78.54;101817.53;5023749;28;20500;-73
2021/07/20 05:03:31;;;;;;;29.70;13.18;;;;;;;13.30;78.27;101817.28;5026412;28;20033;-73
2021/07/20 05:05:58;;;;;;;28.60;12.38;;;;;;;13.35;78.07;101822.00;5025386;28;20079;-73
2021/07/20 05:08:31;;;;;;;26.98;13.45;;;;;;;13.45;77.80;101825.38;5017289;28;20820;-73
2021/07/20 05:10:59;;;;;;;30.55;13.23;;;;;;;13.47;77.65;101830.41;5031153;28;20038;-73
2021/07/20 05:13:30;;;;;;;36.05;15.32;;;;;;;13.50;77.52;101828.34;5013357;28;20556;-72
2021/07/20 05:15:58;;;;;;;28.70;12.48;;;;;;;13.60;77.54;101836.09;5026757;28;20040;-73
2021/07/20 05:18:34;;;;;;;27.90;12.48;;;;;;;13.66;77.45;101837.28;5012414;28;20058;-73
2021/07/20 05:21:03;;;;;;;31.73;12.98;;;;;;;13.74;77.18;101835.53;5023067;28;20661;-72
2021/07/20 05:23:32;;;;;;;30.40;14.88;;;;;;;13.77;77.07;101837.03;5026208;28;20030;-71
2021/07/20 05:26:11;;;;;;;34.97;14.50;;;;;;;13.87;76.72;101835.13;5026449;28;20034;-71
2021/07/20 05:28:38;;;;;;;24.13;11.65;;;;;;;13.97;76.58;101841.06;5023175;28;20029;-72
2021/07/20 05:31:06;;;;;;;31.65;13.73;;;;;;;14.10;76.41;101835.44;5021157;28;20029;-71
2021/07/20 05:33:33;;;;;;;29.02;13.52;;;;;;;14.24;76.30;101835.84;5021093;28;20033;-71
2021/07/20 05:36:05;;;;;;;25.92;12.13;;;;;;;14.39;75.93;101842.13;5029144;28;20108;-72
2021/07/20 05:38:32;;;;;;;25.33;12.50;;;;;;;14.49;75.54;101837.59;5017143;28;20033;-71
2021/07/20 05:41:16;;;;;;;28.65;13.55;;;;;;;14.55;75.11;101836.97;5022147;28;20082;-70
2021/07/20 05:43:43;;;;;;;26.02;11.85;;;;;;;14.68;74.74;101844.41;5019242;28;20108;-71
2021/07/20 05:46:11;;;;;;;31.33;14.38;;;;;;;14.77;74.22;101843.47;5023585;28;20096;-71
2021/07/20 05:48:37;;;;;;;30.13;14.55;;;;;;;14.87;73.43;101850.34;5026997;28;20038;-71
2021/07/20 05:51:08;;;;;;;35.13;15.95;;;;;;;14.98;72.71;101850.84;5032542;28;20029;-71
2021/07/20 05:53:52;;;;;;;35.75;15.85;;;;;;;15.12;71.92;101849.41;5036088;28;20029;-71
2021/07/20 05:56:37;;;;;;;35.70;15.10;;;;;;;15.37;71.23;101850.28;5020501;28;20460;-71
2021/07/20 05:59:15;;;;;;;28.65;14.98;;;;;;;15.57;70.28;101855.19;5025924;28;20122;-71
2021/07/20 06:01:42;;;;;;;30.98;13.80;;;;;;;15.83;69.93;101849.81;5036253;28;20041;-70
2021/07/20 06:04:15;;;;;;;29.77;14.43;;;;;;;16.11;68.81;101857.28;5027528;28;20034;-70
2021/07/20 06:06:41;;;;;;;37.22;15.80;;;;;;;16.34;67.07;101862.63;5020114;28;20040;-71
2021/07/20 06:09:07;;;;;;;31.08;14.50;;;;;;;16.46;67.21;101856.06;5028271;28;20041;-71
2021/07/20 06:11:34;;;;;;;29.42;14.63;;;;;;;16.79;66.29;101853.28;5019746;28;20033;-71
2021/07/20 06:14:01;;;;;;;36.33;14.73;;;;;;;16.88;65.14;101854.09;5020714;28;20041;-71
2021/07/20 06:16:28;;;;;;;29.23;14.57;;;;;;;17.08;64.83;101862.31;5019979;28;20037;-71
2021/07/20 06:18:53;;;;;;;25.75;13.23;;;;;;;17.29;64.83;101852.03;5023256;28;20033;-71
2021/07/20 06:21:22;;;;;;;28.55;14.00;;;;;;;17.49;63.81;101862.84;5018135;28;20045;-71
2021/07/20 06:23:50;;;;;;;29.48;14.25;;;;;;;17.65;63.13;101864.53;5025641;28;20549;-71
2021/07/20 06:26:25;;;;;;;28.17;13.45;;;;;;;18.04;62.72;101857.47;5034979;28;20032;-71
2021/07/20 06:28:53;;;;;;;28.67;13.02;;;;;;;18.11;62.11;101865.47;5014147;28;20042;-71
2021/07/20 06:31:20;;;;;;;32.88;14.43;;;;;;;18.35;61.41;101856.50;5019587;28;20033;-72
2021/07/20 06:33:48;;;;;;;29.65;14.05;;;;;;;18.35;60.85;101859.94;5017991;28;20503;-71
2021/07/20 06:36:15;;;;;;;25.55;13.45;;;;;;;18.58;60.31;101856.41;5027220;28;20042;-71
2021/07/20 06:38:42;;;;;;;23.15;13.52;;;;;;;18.79;59.44;101860.88;5029206;28;20564;-72
2021/07/20 06:41:08;;;;;;;28.60;14.05;;;;;;;18.88;59.71;101865.06;5035629;28;20038;-71
2021/07/20 06:43:36;;;;;;;29.02;14.52;;;;;;;19.08;58.69;101867.06;5034729;28;20033;-71
2021/07/20 06:46:03;;;;;;;29.77;13.18;;;;;;;19.39;57.96;101864.97;5009998;28;20071;-73
2021/07/20 06:48:29;;;;;;;27.35;12.45;;;;;;;19.59;58.04;101864.31;5022813;28;20029;-72
2021/07/20 06:50:55;;;;;;;31.30;14.15;;;;;;;19.57;56.66;101861.88;5029488;28;20052;-72
2021/07/20 06:53:21;;;;;;;29.92;13.80;;;;;;;19.70;57.42;101874.31;5027597;28;20071;-72
2021/07/20 06:55:53;;;;;;;50.13;23.95;;;;;;;20.01;55.39;101873.16;5025000;28;20080;-72
2021/07/20 06:58:21;;;;;;;32.03;14.43;;;;;;;20.15;55.33;101868.78;5035789;28;20033;-72
2021/07/20 07:00:48;;;;;;;29.70;13.98;;;;;;;20.08;55.78;101873.19;5027614;28;20026;-73
2021/07/20 07:03:16;;;;;;;25.48;13.50;;;;;;;20.36;55.45;101875.78;5028480;28;20033;-71
2021/07/20 07:05:42;;;;;;;28.73;14.70;;;;;;;20.45;53.97;101882.50;5031906;28;20045;-72
2021/07/20 07:08:10;;;;;;;20.95;12.93;;;;;;;20.67;53.74;101885.09;5029956;28;20133;-72
2021/07/20 07:10:37;;;;;;;29.02;13.63;;;;;;;21.02;52.91;101877.91;5031274;28;20049;-73
2021/07/20 07:13:07;;;;;;;24.45;13.02;;;;;;;21.23;52.96;101878.72;5029321;28;20034;-72
2021/07/20 07:15:34;;;;;;;28.88;14.50;;;;;;;21.63;52.39;101876.16;5026694;28;20077;-72
2021/07/20 07:18:01;;;;;;;26.23;13.32;;;;;;;21.95;50.53;101877.94;5022931;28;20323;-73
2021/07/20 07:20:27;;;;;;;27.02;13.45;;;;;;;22.19;49.89;101865.13;5038375;28;20087;-72
2021/07/20 07:22:54;;;;;;;23.70;13.73;;;;;;;22.19;50.23;101862.47;5024990;28;20410;-72
2021/07/20 07:25:21;;;;;;;26.00;12.55;;;;;;;22.33;49.96;101869.34;5023816;28;20041;-72
2021/07/20 07:27:47;;;;;;;24.63;12.05;;;;;;;22.45;48.99;101856.31;5032701;28;20550;-72
2021/07/20 07:30:15;;;;;;;27.85;13.32;;;;;;;22.79;48.79;101858.78;5034076;28;20072;-74
2021/07/20 07:32:41;;;;;;;28.17;12.45;;;;;;;22.96;48.26;101867.81;5033960;28;20042;-73
2021/07/20 07:35:08;;;;;;;25.88;13.23;;;;;;;23.04;48.44;101861.53;5035469;28;20036;-73
2021/07/20 07:37:35;;;;;;;23.58;12.23;;;;;;;23.17;48.80;101868.53;5029619;28;20037;-73
2021/07/20 07:40:02;;;;;;;24.67;12.23;;;;;;;23.09;47.28;101867.81;5036690;28;20037;-74
2021/07/20 07:42:27;;;;;;;23.48;12.95;;;;;;;23.12;46.85;101869.19;5031357;28;20498;-74
2021/07/20 07:44:54;;;;;;;22.05;12.07;;;;;;;22.91;47.39;101873.75;5039489;28;20037;-76
2021/07/20 07:47:21;;;;;;;28.25;12.13;;;;;;;23.09;48.14;101867.81;5021945;28;20131;-73
2021/07/20 07:49:47;;;;;;;21.23;11.15;;;;;;;23.54;46.94;101871.31;5021182;28;20056;-74
2021/07/20 07:52:14;;;;;;;28.90;13.45;;;;;;;23.73;46.72;101865.03;5029707;28;21084;-73
2021/07/20 07:54:41;;;;;;;22.83;12.27;;;;;;;23.90;45.30;101871.44;5027730;28;20486;-74
2021/07/20 07:57:07;;;;;;;24.40;12.68;;;;;;;23.89;45.49;101864.50;5024036;28;20022;-73
2021/07/20 07:59:34;;;;;;;22.17;12.25;;;;;;;23.61;46.75;101872.09;5026749;28;20112;-73
2021/07/20 08:02:03;;;;;;;20.92;11.10;;;;;;;23.24;47.19;101879.91;5027171;28;20038;-74
2021/07/20 08:04:31;;;;;;;18.92;10.55;;;;;;;23.50;45.74;101870.94;5029027;28;20042;-73
2021/07/20 08:06:58;;;;;;;19.90;10.88;;;;;;;23.28;46.29;101875.78;5026275;28;20025;-74
2021/07/20 08:09:26;;;;;;;19.67;10.35;;;;;;;22.46;47.56;101872.97;5031782;28;20035;-74
2021/07/20 08:11:54;;;;;;;18.42;10.02;;;;;;;23.00;46.74;101871.69;5029574;28;20505;-73
2021/07/20 08:14:20;;;;;;;16.08;9.02;;;;;;;23.69;45.96;101874.44;5023975;28;20047;-73
2021/07/20 08:16:48;;;;;;;19.02;11.15;;;;;;;23.38;44.81;101877.97;5026682;28;20056;-72
2021/07/20 08:19:15;;;;;;;19.33;10.00;;;;;;;23.26;45.12;101867.25;5033211;28;20041;-74
2021/07/20 08:21:43;;;;;;;18.15;9.60;;;;;;;23.39;45.54;101880.38;5026916;28;20410;-74
2021/07/20 08:24:11;;;;;;;16.60;8.57;;;;;;;22.87;46.86;101872.56;5025288;28;20541;-73
2021/07/20 08:26:48;;;;;;;14.65;8.48;;;;;;;23.63;44.21;101865.53;5035201;28;20044;-75
2021/07/20 08:29:18;;;;;;;17.20;9.23;;;;;;;24.29;41.51;101873.84;5025423;28;20060;-74
2021/07/20 08:31:50;;;;;;;18.52;9.43;;;;;;;23.61;42.70;101870.25;5029008;28;20041;-76
2021/07/20 08:34:20;;;;;;;17.90;9.75;;;;;;;23.48;44.99;101868.50;5020760;28;20128;-74
2021/07/20 08:36:47;;;;;;;17.20;8.50;;;;;;;24.06;43.15;101871.88;5022327;28;20041;-74
2021/07/20 08:39:13;;;;;;;18.98;8.75;;;;;;;24.39;42.53;101870.69;5025679;28;20037;-74
2021/07/20 08:42:03;;;;;;;17.52;9.02;;;;;;;24.99;40.34;101872.56;5035489;28;20029;-74
2021/07/20 08:45:15;;;;;;;13.82;8.45;;;;;;;24.64;40.21;101873.28;5028893;28;20044;-73
2021/07/20 08:48:09;;;;;;;15.05;8.45;;;;;;;24.94;40.18;101875.91;5027702;28;20053;-75
2021/07/20 08:50:58;;;;;;;14.88;9.38;;;;;;;25.28;39.10;101867.47;5034469;28;20063;-73
2021/07/20 08:53:48;;;;;;;17.83;9.45;;;;;;;24.95;40.32;101877.53;5025352;28;20411;-73
2021/07/20 08:56:18;;;;;;;12.93;8.95;;;;;;;24.99;41.09;101864.63;5023947;28;20029;-73
2021/07/20 08:58:48;;;;;;;12.88;8.32;;;;;;;25.43;38.75;101866.00;5031905;28;20057;-74
2021/07/20 09:01:22;;;;;;;14.50;8.00;;;;;;;25.15;38.36;101869.28;5025553;28;20029;-75
2021/07/20 09:04:08;;;;;;;15.82;8.43;;;;;;;25.32;39.26;101868.66;5005477;28;20036;-75
2021/07/20 09:06:42;;;;;;;15.52;8.32;;;;;;;25.39;37.85;101870.16;5017089;28;20404;-76
2021/07/20 09:09:11;;;;;;;16.65;8.52;;;;;;;25.13;37.56;101873.16;5016964;28;20419;-74
2021/07/20 09:11:47;;;;;;;15.57;9.15;;;;;;;24.73;38.83;101869.25;5038812;28;20041;-74
2021/07/20 09:14:45;;;;;;;13.02;8.77;;;;;;;23.62;41.02;101885.09;5013919;28;20037;-77
2021/07/20 09:17:33;;;;;;;17.42;9.20;;;;;;;23.21;43.78;101883.00;5009515;28;20045;-73
2021/07/20 09:20:14;;;;;;;15.68;9.23;;;;;;;23.66;43.40;101877.53;5011008;28;20037;-75
2021/07/20 09:23:23;;;;;;;19.65;9.93;;;;;;;23.60;43.50;101875.75;5021087;28;20116;-74
2021/07/20 09:25:57;;;;;;;15.07;8.25;;;;;;;23.33;43.29;101882.06;5014137;28;20410;-74
2021/07/20 09:28:50;;;;;;;17.45;8.02;;;;;;;24.15;43.75;101875.03;5020342;28;20097;-74
2021/07/20 09:31:45;;;;;;;13.77;8.10;;;;;;;24.01;40.76;101875.16;5015927;28;20030;-74
2021/07/20 09:34:20;;;;;;;18.23;9.52;;;;;;;23.70;41.06;101886.66;5018850;28;20149;-73
2021/07/20 09:37:09;;;;;;;20.55;8.48;;;;;;;23.44;43.68;101895.63;5020593;28;20037;-73
2021/07/20 09:39:59;;;;;;;15.93;8.65;;;;;;;23.56;42.70;101882.50;5012556;28;20034;-73
2021/07/20 09:42:36;;;;;;;14.48;8.95;;;;;;;23.58;44.01;101883.91;5023334;28;20374;-74
2021/07/20 09:45:08;;;;;;;13.50;8.85;;;;;;;23.80;41.84;101886.19;5022866;28;20037;-74
2021/07/20 09:47:55;;;;;;;14.10;9.23;;;;;;;23.96;41.68;101882.16;5023736;28;20104;-75
2021/07/20 09:50:26;;;;;;;17.15;9.90;;;;;;;24.03;42.05;101874.97;5014942;28;20037;-74
2021/07/20 09:53:13;;;;;;;19.30;9.77;;;;;;;24.23;41.17;101880.84;5030390;28;20143;-73
2021/07/20 09:55:42;;;;;;;20.23;9.82;;;;;;;24.00;41.40;101878.06;5022742;28;20087;-74
2021/07/20 09:58:26;;;;;;;14.73;8.95;;;;;;;24.28;41.12;101875.72;5052509;28;20046;-74
2021/07/20 10:01:15;;;;;;;19.20;10.75;;;;;;;24.30;41.48;101878.16;5020271;28;20364;-76
2021/07/20 10:03:56;;;;;;;21.20;10.43;;;;;;;23.92;42.41;101871.19;5029963;28;20395;-76
2021/07/20 10:06:38;;;;;;;18.83;9.63;;;;;;;24.01;41.94;101869.06;5034922;28;20421;-75
2021/07/20 10:09:09;;;;;;;25.25;11.80;;;;;;;23.85;42.26;101873.94;5021944;28;20056;-74
2021/07/20 10:11:41;;;;;;;14.57;9.52;;;;;;;24.02;41.93;101876.00;5040099;28;20124;-74
2021/07/20 10:14:43;;;;;;;17.67;9.82;;;;;;;24.24;43.19;101873.72;5029154;28;20044;-74
2021/07/20 10:17:25;;;;;;;16.40;10.35;;;;;;;24.10;43.04;101873.06;4990256;28;20050;-74
2021/07/20 10:20:00;;;;;;;16.95;10.90;;;;;;;24.19;42.17;101874.38;5027548;28;20033;-75
2021/07/20 10:22:56;;;;;;;17.90;10.45;;;;;;;24.35;42.85;101867.66;5036520;28;20034;-74
2021/07/20 10:25:36;;;;;;;26.77;11.60;;;;;;;23.86;41.85;101862.28;5030498;28;20053;-74
2021/07/20 10:28:10;;;;;;;19.27;10.90;;;;;;;23.92;41.79;101865.09;5028284;28;20095;-73
2021/07/20 10:30:38;;;;;;;16.65;10.18;;;;;;;24.11;43.14;101866.75;5018222;28;20034;-74
2021/07/20 10:33:24;;;;;;;14.40;8.50;;;;;;;24.18;41.88;101864.00;5036682;28;20124;-74
2021/07/20 10:36:03;;;;;;;16.58;10.13;;;;;;;23.72;42.24;101863.44;5026283;28;20479;-73
2021/07/20 10:38:38;;;;;;;18.45;9.70;;;;;;;23.95;40.71;101868.13;5024109;28;20513;-74
2021/07/20 10:41:04;;;;;;;15.60;9.20;;;;;;;24.14;41.28;101863.63;5032278;28;20040;-74
2021/07/20 10:43:41;;;;;;;13.85;8.43;;;;;;;24.54;40.18;101855.22;5031677;28;20506;-75
2021/07/20 10:46:10;;;;;;;16.75;8.88;;;;;;;24.46;40.19;101858.16;5032068;28;20041;-74
2021/07/20 10:48:41;;;;;;;15.48;8.50;;;;;;;24.77;40.30;101859.00;5027296;28;20437;-75
2021/07/20 10:51:16;;;;;;;15.10;9.02;;;;;;;24.60;38.64;101857.00;5027343;28;20029;-76
2021/07/20 10:54:16;;;;;;;15.35;9.35;;;;;;;24.09;39.64;101853.72;5027377;28;20509;-74
2021/07/20 10:56:52;;;;;;;17.13;9.15;;;;;;;24.33;42.25;101859.13;5026903;28;20037;-76
2021/07/20 10:59:39;;;;;;;15.20;9.23;;;;;;;24.65;40.05;101854.47;5033756;28;20033;-75
2021/07/20 11:02:22;;;;;;;15.45;9.70;;;;;;;24.84;40.38;101859.72;5038728;28;20723;-74
2021/07/20 11:05:05;;;;;;;15.38;8.70;;;;;;;25.22;40.31;101853.22;5034088;28;20496;-76
2021/07/20 11:07:57;;;;;;;18.92;9.93;;;;;;;24.76;39.30;101858.19;5031121;28;20033;-76
2021/07/20 11:10:33;;;;;;;21.30;9.15;;;;;;;24.48;39.01;101854.25;5028535;28;20033;-76
2021/07/20 11:13:10;;;;;;;14.30;8.02;;;;;;;24.29;40.01;101852.66;5023644;28;20036;-75
2021/07/20 11:15:38;;;;;;;15.65;8.95;;;;;;;24.44;40.38;101852.28;5028789;28;20025;-74
2021/07/20 11:18:08;;;;;;;15.38;9.27;;;;;;;24.57;39.86;101848.69;5029355;28;20041;-74
2021/07/20 11:20:34;;;;;;;14.88;8.48;;;;;;;24.91;40.20;101849.03;5034816;28;20068;-75
2021/07/20 11:23:01;;;;;;;16.50;9.43;;;;;;;25.05;38.90;101847.78;5030718;28;20026;-75
2021/07/20 11:25:28;;;;;;;15.40;8.98;;;;;;;25.36;36.59;101844.06;5039316;28;20513;-76
2021/07/20 11:27:57;;;;;;;15.38;9.13;;;;;;;25.22;38.66;101839.97;5023354;28;20064;-75
2021/07/20 11:30:26;;;;;;;15.80;9.13;;;;;;;25.58;37.21;101832.84;5031979;28;20136;-77
2021/07/20 11:32:59;;;;;;;17.02;8.52;;;;;;;25.76;39.57;101842.56;5028016;28;20392;-76
2021/07/20 11:35:28;;;;;;;;;;;;;;;25.47;36.45;101842.47;5040099;28;20041;-74
2021/07/20 11:38:08;;;;;;;13.82;9.15;;;;;;;25.23;39.06;101845.06;5034499;28;19924;-76